Time,TemperatureF,DewpointF,PressureIn,WindDirection,WindDirectionDegrees,WindSpeedMPH,WindSpeedGustMPH,Humidity,HourlyPrecipIn,Conditions,Clouds,dailyrainin,SoftwareType,DateUTC
2013-10-10 00:01:00,63.7,62.4,30.03,NE,45,0.0,0.0,96,0.00,,,0.00,WUHU21636XXSP,2013-10-10 04:01:00,
2013-10-10 00:02:00,63.7,62.4,30.03,NE,45,0.0,0.0,96,0.00,,,0.00,WUHU21636XXSP,2013-10-10 04:02:00,
2013-10-10 00:07:00,63.5,62.2,30.03,NE,45,0.0,0.0,96,0.00,,,0.00,WUHU21636XXSP,2013-10-10 04:07:00,
2013-10-10 00:12:00,63.7,62.4,30.03,NE,45,0.0,0.0,96,0.00,,,0.00,WUHU21636XXSP,2013-10-10 04:12:00,
2013-10-10 00:17:00,63.5,62.2,30.02,NE,45,0.0,0.0,96,0.00,,,0.00,WUHU21636XXSP,2013-10-10 04:17:00,
2013-10-10 00:22:00,63.5,62.2,30.02,NE,45,0.0,0.0,96,0.00,,,0.00,WUHU21636XXSP,2013-10-10 04:22:00,
2013-10-10 00:27:00,63.3,61.9,30.02,NE,45,0.0,0.0,95,0.00,,,0.00,WUHU21636XXSP,2013-10-10 04:27:00,
2013-10-10 00:32:00,63.3,61.9,30.02,NE,45,0.0,0.0,95,0.00,,,0.00,WUHU21636XXSP,2013-10-10 04:32:00,
2013-10-10 00:37:00,63.3,61.9,30.02,NE,45,0.0,0.0,95,0.00,,,0.00,WUHU21636XXSP,2013-10-10 04:37:00,
2013-10-10 00:42:00,63.3,61.9,30.02,NE,45,0.0,0.0,95,0.00,,,0.00,WUHU21636XXSP,2013-10-10 04:42:00,
2013-10-10 00:47:00,63.3,61.9,30.02,NE,45,0.0,0.0,95,0.00,,,0.00,WUHU21636XXSP,2013-10-10 04:47:00,
2013-10-10 00:52:00,63.3,61.9,30.02,NE,45,0.0,0.0,95,0.00,,,0.00,WUHU21636XXSP,2013-10-10 04:52:00,
2013-10-10 00:57:00,63.3,61.9,30.02,NE,45,0.0,0.0,95,0.00,,,0.00,WUHU21636XXSP,2013-10-10 04:57:00,
2013-10-10 01:02:00,63.3,61.9,30.02,NE,45,0.0,0.0,95,0.00,,,0.00,WUHU21636XXSP,2013-10-10 05:02:00,
2013-10-10 01:07:00,63.1,61.7,30.02,NE,45,0.0,0.0,95,0.00,,,0.00,WUHU21636XXSP,2013-10-10 05:07:00,
2013-10-10 01:12:00,63.0,61.5,30.01,NE,45,0.0,0.0,95,0.00,,,0.00,WUHU21636XXSP,2013-10-10 05:12:00,
2013-10-10 01:17:00,63.0,61.5,30.02,NE,45,0.0,0.0,95,0.00,,,0.00,WUHU21636XXSP,2013-10-10 05:17:00,
2013-10-10 01:22:00,62.8,61.3,30.02,NE,45,0.0,0.0,95,0.00,,,0.00,WUHU21636XXSP,2013-10-10 05:22:00,
2013-10-10 01:27:00,62.8,61.3,30.02,NE,45,0.0,0.0,95,0.00,,,0.00,WUHU21636XXSP,2013-10-10 05:27:00,
2013-10-10 01:32:00,62.4,61.0,30.02,NE,45,0.0,0.0,95,0.00,,,0.00,WUHU21636XXSP,2013-10-10 05:32:00,
2013-10-10 01:37:00,62.4,61.0,30.02,NE,45,0.0,0.0,96,0.00,,,0.00,WUHU21636XXSP,2013-10-10 05:37:00,
2013-10-10 01:42:00,62.4,61.0,30.02,NE,45,0.0,0.0,96,0.00,,,0.00,WUHU21636XXSP,2013-10-10 05:42:00,
2013-10-10 01:47:00,62.2,61.0,30.01,NE,45,0.0,0.0,96,0.00,,,0.00,WUHU21636XXSP,2013-10-10 05:47:00,
2013-10-10 01:52:00,62.2,61.0,30.01,NE,45,0.0,0.0,96,0.00,,,0.00,WUHU21636XXSP,2013-10-10 05:52:00,
2013-10-10 01:57:00,62.4,61.2,30.01,NE,45,0.0,0.0,96,0.00,,,0.00,WUHU21636XXSP,2013-10-10 05:57:00,
2013-10-10 02:02:00,62.2,61.0,30.01,NE,45,0.0,0.0,96,0.00,,,0.00,WUHU21636XXSP,2013-10-10 06:02:00,
2013-10-10 02:07:00,62.2,61.0,30.01,NE,45,0.0,0.0,96,0.00,,,0.00,WUHU21636XXSP,2013-10-10 06:07:00,
2013-10-10 02:12:00,62.2,61.0,30.01,NE,45,0.0,0.0,96,0.00,,,0.00,WUHU21636XXSP,2013-10-10 06:12:00,
2013-10-10 02:17:00,62.2,61.0,30.01,NE,45,0.0,0.0,96,0.00,,,0.00,WUHU21636XXSP,2013-10-10 06:17:00,
2013-10-10 02:22:00,62.1,60.8,30.01,NE,45,0.0,0.0,96,0.00,,,0.00,WUHU21636XXSP,2013-10-10 06:22:00,
2013-10-10 02:27:00,61.9,60.6,30.01,NE,45,0.0,0.0,96,0.00,,,0.00,WUHU21636XXSP,2013-10-10 06:27:00,
2013-10-10 02:32:00,61.9,60.6,30.01,NE,45,0.0,0.0,96,0.00,,,0.00,WUHU21636XXSP,2013-10-10 06:32:00,
2013-10-10 02:37:00,61.9,60.6,30.01,NE,45,0.0,0.0,96,0.00,,,0.00,WUHU21636XXSP,2013-10-10 06:37:00,
2013-10-10 02:42:00,61.7,60.4,30.01,NE,45,0.0,0.0,96,0.00,,,0.00,WUHU21636XXSP,2013-10-10 06:42:00,
2013-10-10 02:47:00,61.5,60.3,30.01,NE,45,0.0,0.0,96,0.00,,,0.00,WUHU21636XXSP,2013-10-10 06:47:00,
2013-10-10 02:52:00,61.3,60.1,30.01,NE,45,0.0,0.0,96,0.00,,,0.00,WUHU21636XXSP,2013-10-10 06:52:00,
2013-10-10 02:57:00,61.3,60.1,30.01,NE,45,0.0,0.0,96,0.00,,,0.00,WUHU21636XXSP,2013-10-10 06:57:00,
2013-10-10 03:02:00,61.3,60.1,30.01,NE,45,0.0,0.0,96,0.00,,,0.00,WUHU21636XXSP,2013-10-10 07:02:00,
2013-10-10 03:07:00,61.3,60.1,30.00,NE,45,0.0,0.0,96,0.00,,,0.00,WUHU21636XXSP,2013-10-10 07:07:00,
2013-10-10 03:12:00,61.3,60.1,30.00,NE,45,0.0,0.0,96,0.00,,,0.00,WUHU21636XXSP,2013-10-10 07:12:00,
2013-10-10 03:17:00,61.3,60.1,30.00,NE,45,0.0,0.0,96,0.00,,,0.00,WUHU21636XXSP,2013-10-10 07:17:00,
2013-10-10 03:22:00,61.2,59.9,30.00,NE,45,0.0,0.0,96,0.00,,,0.00,WUHU21636XXSP,2013-10-10 07:22:00,
2013-10-10 03:27:00,61.2,59.9,30.00,NE,45,0.0,0.0,96,0.00,,,0.00,WUHU21636XXSP,2013-10-10 07:27:00,
2013-10-10 03:32:00,61.2,59.9,30.00,NE,45,0.0,0.0,96,0.00,,,0.00,WUHU21636XXSP,2013-10-10 07:32:00,
2013-10-10 03:37:00,61.3,60.1,30.00,NE,45,0.0,0.0,96,0.00,,,0.00,WUHU21636XXSP,2013-10-10 07:37:00,
2013-10-10 03:42:00,61.3,60.1,30.00,NE,45,0.0,0.0,96,0.00,,,0.00,WUHU21636XXSP,2013-10-10 07:42:00,
2013-10-10 03:47:00,61.3,60.1,30.00,NE,45,0.0,0.0,96,0.00,,,0.00,WUHU21636XXSP,2013-10-10 07:47:00,
2013-10-10 03:52:00,61.5,60.3,30.00,NE,45,0.0,0.0,96,0.00,,,0.00,WUHU21636XXSP,2013-10-10 07:52:00,
2013-10-10 03:57:00,61.5,60.3,30.00,NE,45,0.0,0.0,96,0.00,,,0.00,WUHU21636XXSP,2013-10-10 07:57:00,
2013-10-10 04:02:00,61.5,60.3,30.00,NE,45,0.0,0.0,96,0.00,,,0.00,WUHU21636XXSP,2013-10-10 08:02:00,
2013-10-10 04:07:00,61.3,60.1,30.00,NE,45,0.0,0.0,96,0.00,,,0.00,WUHU21636XXSP,2013-10-10 08:07:00,
2013-10-10 04:12:00,61.3,60.1,30.00,NE,45,0.0,0.0,96,0.00,,,0.00,WUHU21636XXSP,2013-10-10 08:12:00,
2013-10-10 04:17:00,61.3,60.1,30.00,NE,45,0.0,0.0,96,0.00,,,0.00,WUHU21636XXSP,2013-10-10 08:17:00,
2013-10-10 04:22:00,61.3,60.1,30.00,NE,45,0.0,0.0,96,0.00,,,0.00,WUHU21636XXSP,2013-10-10 08:22:00,
2013-10-10 04:27:00,61.3,60.1,30.00,NE,45,0.0,0.0,96,0.00,,,0.00,WUHU21636XXSP,2013-10-10 08:27:00,
2013-10-10 04:32:00,61.3,60.1,30.00,NE,45,0.0,0.0,96,0.00,,,0.00,WUHU21636XXSP,2013-10-10 08:32:00,
2013-10-10 04:37:00,61.3,60.1,30.00,NE,45,0.0,0.0,96,0.00,,,0.00,WUHU21636XXSP,2013-10-10 08:37:00,
2013-10-10 04:42:00,61.3,60.1,30.00,NE,45,0.0,0.0,96,0.00,,,0.00,WUHU21636XXSP,2013-10-10 08:42:00,
2013-10-10 04:47:00,61.3,60.1,30.00,NE,45,0.0,0.0,96,0.00,,,0.00,WUHU21636XXSP,2013-10-10 08:47:00,
2013-10-10 04:52:00,61.3,60.1,30.00,NE,45,0.0,0.0,96,0.00,,,0.00,WUHU21636XXSP,2013-10-10 08:52:00,
2013-10-10 04:57:00,61.3,60.1,30.00,NE,45,0.0,0.0,96,0.00,,,0.00,WUHU21636XXSP,2013-10-10 08:57:00,
2013-10-10 05:02:00,61.5,60.3,30.00,NE,45,0.0,0.0,96,0.00,,,0.00,WUHU21636XXSP,2013-10-10 09:02:00,
2013-10-10 05:07:00,61.3,60.1,30.00,NE,45,0.0,0.0,96,0.00,,,0.00,WUHU21636XXSP,2013-10-10 09:07:00,
2013-10-10 05:12:00,61.3,60.1,30.01,NE,45,0.0,0.0,96,0.00,,,0.00,WUHU21636XXSP,2013-10-10 09:12:00,
2013-10-10 05:17:00,61.3,60.1,30.00,NE,45,0.0,0.0,96,0.00,,,0.00,WUHU21636XXSP,2013-10-10 09:17:00,
2013-10-10 05:22:00,61.2,59.9,30.00,NE,45,0.0,0.0,96,0.00,,,0.00,WUHU21636XXSP,2013-10-10 09:22:00,
2013-10-10 05:27:00,61.0,59.7,30.01,NE,45,0.0,0.0,96,0.00,,,0.00,WUHU21636XXSP,2013-10-10 09:27:00,
2013-10-10 05:32:00,60.8,59.5,30.01,NE,45,0.0,0.0,96,0.00,,,0.00,WUHU21636XXSP,2013-10-10 09:32:00,
2013-10-10 05:37:00,60.8,59.5,30.01,NE,45,0.0,0.0,96,0.00,,,0.00,WUHU21636XXSP,2013-10-10 09:37:00,
2013-10-10 05:42:00,60.8,59.5,30.01,NE,45,0.0,0.0,96,0.00,,,0.00,WUHU21636XXSP,2013-10-10 09:42:00,
2013-10-10 05:47:00,60.8,59.5,30.01,NE,45,0.0,0.0,96,0.00,,,0.00,WUHU21636XXSP,2013-10-10 09:47:00,
2013-10-10 05:52:00,60.8,59.5,30.01,NE,45,0.0,0.0,96,0.00,,,0.00,WUHU21636XXSP,2013-10-10 09:52:00,
2013-10-10 05:57:00,61.0,59.7,30.01,NE,45,0.0,0.0,96,0.00,,,0.00,WUHU21636XXSP,2013-10-10 09:57:00,
2013-10-10 06:02:00,61.0,59.7,30.01,NE,45,0.0,0.0,96,0.00,,,0.00,WUHU21636XXSP,2013-10-10 10:02:00,
2013-10-10 06:07:00,61.0,59.7,30.02,NE,45,0.0,0.0,96,0.00,,,0.00,WUHU21636XXSP,2013-10-10 10:07:00,
2013-10-10 06:12:00,60.8,59.5,30.02,NE,45,0.0,0.0,96,0.00,,,0.00,WUHU21636XXSP,2013-10-10 10:12:00,
2013-10-10 06:17:00,60.6,59.4,30.02,NE,45,0.0,0.0,96,0.00,,,0.00,WUHU21636XXSP,2013-10-10 10:17:00,
2013-10-10 06:22:00,60.6,59.4,30.02,NE,45,0.0,0.0,96,0.00,,,0.00,WUHU21636XXSP,2013-10-10 10:22:00,
2013-10-10 06:27:00,60.6,59.4,30.02,NE,45,0.0,0.0,96,0.00,,,0.00,WUHU21636XXSP,2013-10-10 10:27:00,
2013-10-10 06:32:00,60.4,59.2,30.02,NE,45,0.0,0.0,96,0.00,,,0.00,WUHU21636XXSP,2013-10-10 10:32:00,
2013-10-10 06:37:00,60.4,59.2,30.02,NE,45,0.0,0.0,96,0.00,,,0.00,WUHU21636XXSP,2013-10-10 10:37:00,
2013-10-10 06:42:00,60.6,59.4,30.02,NE,45,0.0,0.0,96,0.00,,,0.00,WUHU21636XXSP,2013-10-10 10:42:00,
2013-10-10 06:47:00,60.6,59.4,30.02,NE,45,0.0,0.0,96,0.00,,,0.00,WUHU21636XXSP,2013-10-10 10:47:00,
2013-10-10 06:52:00,60.6,59.4,30.02,NE,45,0.0,0.0,96,0.00,,,0.00,WUHU21636XXSP,2013-10-10 10:52:00,
2013-10-10 06:57:00,60.6,59.4,30.02,NE,45,0.0,0.0,96,0.00,,,0.00,WUHU21636XXSP,2013-10-10 10:57:00,
2013-10-10 07:02:00,60.6,59.4,30.02,NE,45,0.0,0.0,96,0.00,,,0.00,WUHU21636XXSP,2013-10-10 11:02:00,
2013-10-10 07:07:00,60.4,59.2,30.02,NE,45,0.0,0.0,96,0.00,,,0.00,WUHU21636XXSP,2013-10-10 11:07:00,
2013-10-10 07:12:00,60.4,59.2,30.02,NE,45,0.0,0.0,96,0.00,,,0.00,WUHU21636XXSP,2013-10-10 11:12:00,
2013-10-10 07:17:00,60.4,59.2,30.02,NE,45,0.0,0.0,96,0.00,,,0.00,WUHU21636XXSP,2013-10-10 11:17:00,
2013-10-10 07:22:00,60.4,59.2,30.02,NE,45,0.0,0.0,96,0.00,,,0.00,WUHU21636XXSP,2013-10-10 11:22:00,
2013-10-10 07:27:00,60.4,59.2,30.02,NE,45,0.0,0.0,96,0.00,,,0.00,WUHU21636XXSP,2013-10-10 11:27:00,
2013-10-10 07:32:00,60.4,59.2,30.02,NE,45,0.0,0.0,96,0.00,,,0.00,WUHU21636XXSP,2013-10-10 11:32:00,
2013-10-10 07:37:00,60.4,59.2,30.02,NE,45,0.0,0.0,96,0.00,,,0.00,WUHU21636XXSP,2013-10-10 11:37:00,
2013-10-10 07:42:00,60.6,59.4,30.02,NE,45,0.0,0.0,96,0.00,,,0.00,WUHU21636XXSP,2013-10-10 11:42:00,
2013-10-10 07:47:00,60.6,59.4,30.02,NE,45,0.0,0.0,96,0.00,,,0.00,WUHU21636XXSP,2013-10-10 11:47:00,
2013-10-10 07:52:00,60.6,59.4,30.02,NE,45,0.0,0.0,96,0.00,,,0.00,WUHU21636XXSP,2013-10-10 11:52:00,
2013-10-10 07:57:00,60.6,59.4,30.02,NE,45,0.0,0.0,96,0.00,,,0.00,WUHU21636XXSP,2013-10-10 11:57:00,
2013-10-10 08:02:00,60.8,59.5,30.02,NE,45,0.0,0.0,96,0.00,,,0.00,WUHU21636XXSP,2013-10-10 12:02:00,
2013-10-10 08:07:00,61.0,59.7,30.02,NE,45,0.0,0.0,96,0.00,,,0.00,WUHU21636XXSP,2013-10-10 12:07:00,
2013-10-10 08:12:00,61.2,59.9,30.02,NE,45,0.0,0.0,96,0.00,,,0.00,WUHU21636XXSP,2013-10-10 12:12:00,
2013-10-10 08:17:00,61.3,60.1,30.02,NE,45,0.0,0.0,96,0.00,,,0.00,WUHU21636XXSP,2013-10-10 12:17:00,
2013-10-10 08:22:00,61.7,60.4,30.03,NE,45,0.0,0.0,96,0.00,,,0.00,WUHU21636XXSP,2013-10-10 12:22:00,
2013-10-10 08:27:00,61.9,60.6,30.03,NE,45,0.0,0.0,96,0.00,,,0.00,WUHU21636XXSP,2013-10-10 12:27:00,
2013-10-10 08:32:00,62.2,61.0,30.03,NE,45,0.0,0.0,96,0.00,,,0.00,WUHU21636XXSP,2013-10-10 12:32:00,
2013-10-10 08:37:00,62.8,61.5,30.03,NE,45,0.0,0.0,96,0.00,,,0.00,WUHU21636XXSP,2013-10-10 12:37:00,
2013-10-10 08:42:00,63.0,61.7,30.03,NE,45,0.0,0.0,96,0.00,,,0.00,WUHU21636XXSP,2013-10-10 12:42:00,
2013-10-10 08:47:00,63.1,61.9,30.04,NE,45,0.0,0.0,96,0.00,,,0.00,WUHU21636XXSP,2013-10-10 12:47:00,
2013-10-10 08:52:00,63.5,62.2,30.04,NE,45,0.0,0.0,96,0.00,,,0.00,WUHU21636XXSP,2013-10-10 12:52:00,
2013-10-10 08:57:00,64.0,62.8,30.04,NE,45,0.0,0.0,96,0.00,,,0.00,WUHU21636XXSP,2013-10-10 12:57:00,
2013-10-10 09:02:00,64.2,63.0,30.04,NE,45,0.0,0.0,96,0.00,,,0.00,WUHU21636XXSP,2013-10-10 13:02:00,
2013-10-10 09:07:00,64.8,63.5,30.04,NE,45,0.0,0.0,96,0.00,,,0.00,WUHU21636XXSP,2013-10-10 13:07:00,
2013-10-10 09:12:00,64.9,63.7,30.04,NE,45,0.0,0.0,96,0.00,,,0.00,WUHU21636XXSP,2013-10-10 13:12:00,
2013-10-10 09:17:00,65.3,64.0,30.04,NE,45,0.0,0.0,96,0.00,,,0.00,WUHU21636XXSP,2013-10-10 13:17:00,
2013-10-10 09:22:00,65.8,64.6,30.04,NE,45,0.0,0.0,96,0.00,,,0.00,WUHU21636XXSP,2013-10-10 13:22:00,
2013-10-10 09:27:00,66.2,64.9,30.04,NE,45,0.0,0.0,96,0.00,,,0.00,WUHU21636XXSP,2013-10-10 13:27:00,
2013-10-10 09:32:00,66.6,65.3,30.04,NE,45,0.0,0.0,96,0.00,,,0.00,WUHU21636XXSP,2013-10-10 13:32:00,
2013-10-10 09:37:00,67.3,66.0,30.04,North,0,3.0,3.2,96,0.00,,,0.00,WUHU21636XXSP,2013-10-10 13:37:00,
2013-10-10 09:42:00,67.6,66.4,30.04,North,0,0.0,3.2,96,0.00,,,0.00,WUHU21636XXSP,2013-10-10 13:42:00,
2013-10-10 09:47:00,67.8,66.6,30.04,North,0,0.0,3.2,96,0.00,,,0.00,WUHU21636XXSP,2013-10-10 13:47:00,
2013-10-10 09:52:00,68.5,66.9,30.04,NNE,22,0.0,2.7,95,0.00,,,0.00,WUHU21636XXSP,2013-10-10 13:52:00,
2013-10-10 09:57:00,68.9,67.3,30.04,North,0,0.0,2.7,95,0.00,,,0.00,WUHU21636XXSP,2013-10-10 13:57:00,
2013-10-10 10:02:00,69.3,67.8,30.04,NE,45,0.0,3.9,95,0.00,,,0.00,WUHU21636XXSP,2013-10-10 14:02:00,
2013-10-10 10:07:00,70.0,67.8,30.05,NNE,22,0.0,3.9,93,0.00,,,0.00,WUHU21636XXSP,2013-10-10 14:07:00,
2013-10-10 10:12:00,70.2,67.4,30.05,NNE,22,0.0,1.9,91,0.00,,,0.00,WUHU21636XXSP,2013-10-10 14:12:00,
2013-10-10 10:17:00,70.7,67.6,30.05,NE,45,0.0,1.9,90,0.00,,,0.00,WUHU21636XXSP,2013-10-10 14:17:00,
2013-10-10 10:22:00,71.7,68.0,30.05,NE,45,0.0,0.0,88,0.00,,,0.00,WUHU21636XXSP,2013-10-10 14:22:00,
2013-10-10 10:27:00,73.6,67.2,30.05,NNW,337,0.0,0.0,80,0.00,,,0.00,WUHU21636XXSP,2013-10-10 14:27:00,
2013-10-10 10:32:00,74.2,67.0,30.05,NNE,22,0.0,4.8,78,0.00,,,0.00,WUHU21636XXSP,2013-10-10 14:32:00,
2013-10-10 10:37:00,74.3,66.4,30.05,North,0,3.2,5.4,76,0.00,,,0.00,WUHU21636XXSP,2013-10-10 14:37:00,
2013-10-10 10:42:00,75.0,66.3,30.05,NNW,337,0.0,6.3,74,0.00,,,0.00,WUHU21636XXSP,2013-10-10 14:42:00,
2013-10-10 10:47:00,75.7,66.3,30.05,NNW,337,0.0,6.3,72,0.00,,,0.00,WUHU21636XXSP,2013-10-10 14:47:00,
2013-10-10 10:52:00,76.2,66.7,30.05,NNW,337,0.0,5.2,72,0.00,,,0.00,WUHU21636XXSP,2013-10-10 14:52:00,
2013-10-10 10:57:00,77.9,66.3,30.05,NNE,22,0.0,4.9,67,0.00,,,0.00,WUHU21636XXSP,2013-10-10 14:57:00,
2013-10-10 11:02:00,78.6,66.5,30.05,ENE,67,0.0,4.9,66,0.00,,,0.00,WUHU21636XXSP,2013-10-10 15:02:00,
2013-10-10 11:07:00,79.0,65.1,30.05,NNW,337,0.0,6.3,62,0.00,,,0.00,WUHU21636XXSP,2013-10-10 15:07:00,
2013-10-10 11:12:00,79.3,66.3,30.05,ENE,67,0.0,6.3,64,0.00,,,0.00,WUHU21636XXSP,2013-10-10 15:12:00,
2013-10-10 11:17:00,79.0,66.4,30.04,ENE,67,2.8,6.3,65,0.00,,,0.00,WUHU21636XXSP,2013-10-10 15:17:00,
2013-10-10 11:22:00,77.9,65.4,30.05,NNW,337,0.0,6.3,65,0.00,,,0.00,WUHU21636XXSP,2013-10-10 15:22:00,
2013-10-10 11:27:00,77.1,65.1,30.04,NNW,337,0.6,6.3,66,0.00,,,0.00,WUHU21636XXSP,2013-10-10 15:27:00,
2013-10-10 11:32:00,78.4,66.8,30.05,ENE,67,4.7,6.3,67,0.00,,,0.00,WUHU21636XXSP,2013-10-10 15:32:00,
2013-10-10 11:37:00,78.6,65.2,30.04,NE,45,0.0,5.5,63,0.00,,,0.00,WUHU21636XXSP,2013-10-10 15:37:00,
2013-10-10 11:42:00,78.5,65.5,30.04,East,90,1.6,5.7,64,0.00,,,0.00,WUHU21636XXSP,2013-10-10 15:42:00,
2013-10-10 11:47:00,78.2,65.7,30.04,WSW,247,0.0,5.7,65,0.00,,,0.00,WUHU21636XXSP,2013-10-10 15:47:00,
2013-10-10 11:52:00,79.4,66.4,30.04,SW,225,0.0,4.8,64,0.00,,,0.00,WUHU21636XXSP,2013-10-10 15:52:00,
2013-10-10 11:57:00,77.7,63.4,30.04,ENE,67,4.5,4.5,61,0.00,,,0.00,WUHU21636XXSP,2013-10-10 15:57:00,
2013-10-10 12:02:00,79.2,63.8,30.04,East,90,0.0,5.0,59,0.00,,,0.00,WUHU21636XXSP,2013-10-10 16:02:00,
2013-10-10 12:07:00,78.4,62.1,30.05,East,90,0.0,5.6,57,0.00,,,0.00,WUHU21636XXSP,2013-10-10 16:07:00,
2013-10-10 12:12:00,79.0,60.6,30.05,North,0,0.0,5.6,53,0.00,,,0.00,WUHU21636XXSP,2013-10-10 16:12:00,
2013-10-10 12:17:00,78.6,62.3,30.04,NE,45,0.0,4.0,57,0.00,,,0.00,WUHU21636XXSP,2013-10-10 16:17:00,
2013-10-10 12:22:00,78.2,62.9,30.04,NNW,337,0.0,3.9,59,0.00,,,0.00,WUHU21636XXSP,2013-10-10 16:22:00,
2013-10-10 12:27:00,78.5,62.2,30.04,NNW,337,4.8,5.1,57,0.00,,,0.00,WUHU21636XXSP,2013-10-10 16:27:00,
2013-10-10 12:32:00,78.1,62.9,30.04,North,0,0.0,7.4,59,0.00,,,0.00,WUHU21636XXSP,2013-10-10 16:32:00,
2013-10-10 12:37:00,79.3,61.9,30.04,SSW,202,0.0,7.4,55,0.00,,,0.00,WUHU21636XXSP,2013-10-10 16:37:00,
2013-10-10 12:42:00,79.3,61.9,30.04,West,270,0.0,6.1,55,0.00,,,0.00,WUHU21636XXSP,2013-10-10 16:42:00,
2013-10-10 12:47:00,79.9,63.5,30.04,ENE,67,3.7,8.3,57,0.00,,,0.00,WUHU21636XXSP,2013-10-10 16:47:00,
2013-10-10 12:52:00,80.6,63.1,30.03,ENE,67,0.0,8.3,55,0.00,,,0.00,WUHU21636XXSP,2013-10-10 16:52:00,
2013-10-10 12:57:00,79.3,62.5,30.03,ENE,67,0.0,7.8,56,0.00,,,0.00,WUHU21636XXSP,2013-10-10 16:57:00,
2013-10-10 13:02:00,78.5,63.2,30.03,NE,45,0.0,8.3,59,0.00,,,0.00,WUHU21636XXSP,2013-10-10 17:02:00,
2013-10-10 13:07:00,77.6,63.3,30.03,NNE,22,1.4,8.3,61,0.00,,,0.00,WUHU21636XXSP,2013-10-10 17:07:00,
2013-10-10 13:12:00,77.2,61.9,30.03,North,0,0.0,4.3,59,0.00,,,0.00,WUHU21636XXSP,2013-10-10 17:12:00,
2013-10-10 13:17:00,76.7,62.5,30.03,ENE,67,0.0,4.3,61,0.00,,,0.00,WUHU21636XXSP,2013-10-10 17:17:00,
2013-10-10 13:22:00,78.2,63.9,30.02,ENE,67,0.0,4.3,61,0.00,,,0.00,WUHU21636XXSP,2013-10-10 17:22:00,
2013-10-10 13:27:00,78.3,63.0,30.02,SE,135,0.0,6.2,59,0.00,,,0.00,WUHU21636XXSP,2013-10-10 17:27:00,
2013-10-10 13:32:00,76.9,63.2,30.02,NE,45,0.0,7.4,62,0.00,,,0.00,WUHU21636XXSP,2013-10-10 17:32:00,
2013-10-10 13:37:00,76.2,62.5,30.02,NE,45,2.6,7.4,62,0.00,,,0.00,WUHU21636XXSP,2013-10-10 17:37:00,
2013-10-10 13:42:00,76.4,62.6,30.01,NE,45,2.0,6.8,62,0.00,,,0.00,WUHU21636XXSP,2013-10-10 17:42:00,
2013-10-10 13:47:00,75.6,62.8,30.01,SE,135,2.7,6.8,64,0.00,,,0.00,WUHU21636XXSP,2013-10-10 17:47:00,
2013-10-10 13:52:00,75.9,63.1,30.00,North,0,0.0,5.9,64,0.00,,,0.00,WUHU21636XXSP,2013-10-10 17:52:00,
2013-10-10 13:57:00,76.0,62.7,30.00,NNE,22,0.0,6.0,63,0.00,,,0.00,WUHU21636XXSP,2013-10-10 17:57:00,
2013-10-10 14:02:00,76.0,61.8,30.00,ENE,67,0.0,6.0,61,0.00,,,0.00,WUHU21636XXSP,2013-10-10 18:02:00,
2013-10-10 14:07:00,76.1,62.8,29.99,NE,45,2.1,7.6,63,0.00,,,0.00,WUHU21636XXSP,2013-10-10 18:07:00,
2013-10-10 14:12:00,76.7,62.9,29.99,SE,135,0.0,7.6,62,0.00,,,0.00,WUHU21636XXSP,2013-10-10 18:12:00,
2013-10-10 14:17:00,76.8,64.0,29.99,ENE,67,0.0,6.5,64,0.00,,,0.00,WUHU21636XXSP,2013-10-10 18:17:00,
2013-10-10 14:22:00,76.8,62.5,29.99,NE,45,0.0,6.5,61,0.00,,,0.00,WUHU21636XXSP,2013-10-10 18:22:00,
2013-10-10 14:27:00,76.7,62.0,29.99,North,0,0.0,6.4,60,0.00,,,0.00,WUHU21636XXSP,2013-10-10 18:27:00,
2013-10-10 14:32:00,77.0,63.6,29.98,ENE,67,4.0,5.4,63,0.00,,,0.00,WUHU21636XXSP,2013-10-10 18:32:00,
2013-10-10 14:37:00,77.1,63.3,29.98,East,90,4.4,7.4,62,0.00,,,0.00,WUHU21636XXSP,2013-10-10 18:37:00,
2013-10-10 14:42:00,77.2,63.4,29.98,NE,45,0.0,7.4,62,0.00,,,0.00,WUHU21636XXSP,2013-10-10 18:42:00,
2013-10-10 14:47:00,76.6,62.8,29.98,ENE,67,0.0,5.1,62,0.00,,,0.00,WUHU21636XXSP,2013-10-10 18:47:00,
2013-10-10 14:52:00,77.2,63.9,29.97,ENE,67,0.0,5.4,63,0.00,,,0.00,WUHU21636XXSP,2013-10-10 18:52:00,
2013-10-10 14:57:00,77.2,64.3,29.97,ESE,112,0.0,6.1,64,0.00,,,0.00,WUHU21636XXSP,2013-10-10 18:57:00,
2013-10-10 15:02:00,77.8,64.5,29.97,ESE,112,0.0,6.1,63,0.00,,,0.00,WUHU21636XXSP,2013-10-10 19:02:00,
2013-10-10 15:07:00,78.0,64.2,29.97,ESE,112,0.0,4.1,62,0.00,,,0.00,WUHU21636XXSP,2013-10-10 19:07:00,
2013-10-10 15:12:00,77.8,64.0,29.97,ENE,67,0.0,5.1,62,0.00,,,0.00,WUHU21636XXSP,2013-10-10 19:12:00,
2013-10-10 15:17:00,78.3,64.4,29.97,ESE,112,0.0,5.2,62,0.00,,,0.00,WUHU21636XXSP,2013-10-10 19:17:00,
2013-10-10 15:22:00,78.5,64.6,29.97,ENE,67,0.0,5.4,62,0.00,,,0.00,WUHU21636XXSP,2013-10-10 19:22:00,
2013-10-10 15:27:00,78.7,64.3,29.97,NE,45,3.3,5.4,61,0.00,,,0.00,WUHU21636XXSP,2013-10-10 19:27:00,
2013-10-10 15:32:00,78.8,64.6,29.97,NE,45,0.0,5.4,62,0.00,,,0.00,WUHU21636XXSP,2013-10-10 19:32:00,
2013-10-10 15:37:00,78.8,64.6,29.97,ENE,67,0.0,4.8,62,0.00,,,0.00,WUHU21636XXSP,2013-10-10 19:37:00,
2013-10-10 15:42:00,78.6,64.0,29.97,ESE,112,0.0,4.4,62,0.00,,,0.00,WUHU21636XXSP,2013-10-10 19:42:00,
2013-10-10 15:47:00,78.6,64.0,29.97,NE,45,1.5,4.4,64,0.00,,,0.00,WUHU21636XXSP,2013-10-10 19:47:00,
2013-10-10 15:52:00,78.6,64.4,29.96,East,90,0.0,3.0,62,0.00,,,0.00,WUHU21636XXSP,2013-10-10 19:52:00,
2013-10-10 15:57:00,78.8,64.6,29.97,ENE,67,0.0,6.0,62,0.00,,,0.00,WUHU21636XXSP,2013-10-10 19:57:00,
2013-10-10 16:02:00,78.8,64.2,29.97,ENE,67,0.0,6.0,61,0.00,,,0.00,WUHU21636XXSP,2013-10-10 20:02:00,
2013-10-10 16:07:00,79.0,63.9,29.97,NNE,22,0.0,4.4,60,0.00,,,0.00,WUHU21636XXSP,2013-10-10 20:07:00,
2013-10-10 16:12:00,79.0,63.9,29.97,ENE,67,0.8,4.2,61,0.00,,,0.00,WUHU21636XXSP,2013-10-10 20:12:00,
2013-10-10 16:17:00,79.0,63.9,29.96,NE,45,0.0,4.1,60,0.00,,,0.00,WUHU21636XXSP,2013-10-10 20:17:00,
2013-10-10 16:22:00,79.0,63.5,29.96,NE,45,0.0,3.3,59,0.00,,,0.00,WUHU21636XXSP,2013-10-10 20:22:00,
2013-10-10 16:27:00,78.6,63.1,29.96,NNE,22,0.0,1.0,59,0.00,,,0.00,WUHU21636XXSP,2013-10-10 20:27:00,
2013-10-10 16:32:00,78.6,63.1,29.95,NE,45,0.0,1.0,58,0.00,,,0.00,WUHU21636XXSP,2013-10-10 20:32:00,
2013-10-10 16:37:00,78.6,63.1,29.95,ENE,67,0.0,4.9,60,0.00,,,0.00,WUHU21636XXSP,2013-10-10 20:37:00,
2013-10-10 16:42:00,78.6,63.1,29.95,ENE,67,0.0,4.9,59,0.00,,,0.00,WUHU21636XXSP,2013-10-10 20:42:00,
2013-10-10 16:47:00,78.4,63.5,29.96,ENE,67,0.0,3.7,61,0.00,,,0.00,WUHU21636XXSP,2013-10-10 20:47:00,
2013-10-10 16:52:00,78.4,63.5,29.95,NE,45,0.0,3.4,59,0.00,,,0.00,WUHU21636XXSP,2013-10-10 20:52:00,
2013-10-10 16:57:00,78.4,63.5,29.96,NE,45,0.0,1.8,60,0.00,,,0.00,WUHU21636XXSP,2013-10-10 20:57:00,
2013-10-10 17:02:00,78.4,63.5,29.96,NE,45,0.0,1.8,60,0.00,,,0.00,WUHU21636XXSP,2013-10-10 21:02:00,
2013-10-10 17:07:00,78.4,63.5,29.96,ENE,67,0.0,2.9,61,0.00,,,0.00,WUHU21636XXSP,2013-10-10 21:07:00,
2013-10-10 17:12:00,78.4,63.5,29.96,ENE,67,1.3,2.9,62,0.00,,,0.00,WUHU21636XXSP,2013-10-10 21:12:00,
2013-10-10 17:17:00,78.1,63.5,29.95,ENE,67,0.0,3.5,61,0.00,,,0.00,WUHU21636XXSP,2013-10-10 21:17:00,
2013-10-10 17:22:00,78.1,64.4,29.95,ENE,67,0.0,3.5,63,0.00,,,0.00,WUHU21636XXSP,2013-10-10 21:22:00,
2013-10-10 17:27:00,78.1,64.4,29.96,ENE,67,0.0,3.2,62,0.00,,,0.00,WUHU21636XXSP,2013-10-10 21:27:00,
2013-10-10 17:32:00,77.9,63.7,29.96,ENE,67,0.0,3.2,62,0.00,,,0.00,WUHU21636XXSP,2013-10-10 21:32:00,
2013-10-10 17:37:00,78.1,63.9,29.95,NE,45,0.0,3.1,62,0.00,,,0.00,WUHU21636XXSP,2013-10-10 21:37:00,
2013-10-10 17:42:00,78.1,63.9,29.95,ENE,67,0.0,3.1,62,0.00,,,0.00,WUHU21636XXSP,2013-10-10 21:42:00,
2013-10-10 17:47:00,77.9,63.3,29.95,East,90,0.0,3.2,61,0.00,,,0.00,WUHU21636XXSP,2013-10-10 21:47:00,
2013-10-10 17:52:00,77.9,63.3,29.95,East,90,0.0,3.2,63,0.00,,,0.00,WUHU21636XXSP,2013-10-10 21:52:00,
2013-10-10 17:57:00,77.7,64.0,29.95,East,90,0.0,0.0,63,0.00,,,0.00,WUHU21636XXSP,2013-10-10 21:57:00,
2013-10-10 18:02:00,77.5,63.9,29.95,East,90,0.0,0.0,63,0.00,,,0.00,WUHU21636XXSP,2013-10-10 22:02:00,
2013-10-10 18:07:00,77.2,63.9,29.95,East,90,0.0,0.0,65,0.00,,,0.00,WUHU21636XXSP,2013-10-10 22:07:00,
2013-10-10 18:12:00,76.8,64.9,29.95,East,90,0.0,0.0,67,0.00,,,0.00,WUHU21636XXSP,2013-10-10 22:12:00,
2013-10-10 18:17:00,76.3,64.4,29.95,East,90,0.0,0.0,67,0.00,,,0.00,WUHU21636XXSP,2013-10-10 22:17:00,
2013-10-10 18:22:00,75.7,64.4,29.95,East,90,0.0,0.0,68,0.00,,,0.00,WUHU21636XXSP,2013-10-10 22:22:00,
2013-10-10 18:27:00,75.6,64.2,29.95,East,90,0.0,0.0,68,0.00,,,0.00,WUHU21636XXSP,2013-10-10 22:27:00,
2013-10-10 18:32:00,75.0,64.0,29.95,East,90,0.0,0.0,69,0.00,,,0.00,WUHU21636XXSP,2013-10-10 22:32:00,
2013-10-10 18:37:00,74.7,64.6,29.94,East,90,0.0,0.0,71,0.00,,,0.00,WUHU21636XXSP,2013-10-10 22:37:00,
2013-10-10 18:42:00,74.3,64.9,29.95,East,90,0.0,0.0,73,0.00,,,0.00,WUHU21636XXSP,2013-10-10 22:42:00,
2013-10-10 18:47:00,73.9,65.1,29.95,East,90,0.0,0.0,74,0.00,,,0.00,WUHU21636XXSP,2013-10-10 22:47:00,
2013-10-10 18:52:00,73.6,65.1,29.95,East,90,0.0,0.0,75,0.00,,,0.00,WUHU21636XXSP,2013-10-10 22:52:00,
2013-10-10 18:57:00,73.0,66.6,29.95,East,90,0.0,0.0,80,0.00,,,0.00,WUHU21636XXSP,2013-10-10 22:57:00,
2013-10-10 19:02:00,73.0,66.6,29.95,East,90,0.0,0.0,81,0.00,,,0.00,WUHU21636XXSP,2013-10-10 23:02:00,
2013-10-10 19:07:00,72.7,66.7,29.95,East,90,0.0,0.0,82,0.00,,,0.00,WUHU21636XXSP,2013-10-10 23:07:00,
2013-10-10 19:12:00,72.1,66.2,29.95,East,90,0.0,0.0,82,0.00,,,0.00,WUHU21636XXSP,2013-10-10 23:12:00,
2013-10-10 19:17:00,71.8,65.8,29.95,East,90,0.0,0.0,82,0.00,,,0.00,WUHU21636XXSP,2013-10-10 23:17:00,
2013-10-10 19:22:00,71.2,65.7,29.95,East,90,0.0,0.0,83,0.00,,,0.00,WUHU21636XXSP,2013-10-10 23:22:00,
2013-10-10 19:27:00,70.9,65.3,29.95,East,90,0.0,0.0,83,0.00,,,0.00,WUHU21636XXSP,2013-10-10 23:27:00,
2013-10-10 19:32:00,70.7,65.1,29.95,East,90,0.0,0.0,84,0.00,,,0.00,WUHU21636XXSP,2013-10-10 23:32:00,
2013-10-10 19:37:00,70.5,65.7,29.96,East,90,0.0,0.0,86,0.00,,,0.00,WUHU21636XXSP,2013-10-10 23:37:00,
2013-10-10 19:42:00,70.2,65.7,29.95,East,90,0.0,0.0,86,0.00,,,0.00,WUHU21636XXSP,2013-10-10 23:42:00,
2013-10-10 19:47:00,70.0,65.5,29.96,ENE,67,0.0,2.7,86,0.00,,,0.00,WUHU21636XXSP,2013-10-10 23:47:00,
2013-10-10 19:52:00,69.6,65.1,29.96,ENE,67,0.0,2.7,86,0.00,,,0.00,WUHU21636XXSP,2013-10-10 23:52:00,
2013-10-10 19:57:00,69.4,64.9,29.96,ENE,67,0.0,0.0,87,0.00,,,0.00,WUHU21636XXSP,2013-10-10 23:57:00,
2013-10-10 20:02:00,69.1,64.9,29.96,ENE,67,0.0,0.0,87,0.00,,,0.00,WUHU21636XXSP,2013-10-11 00:02:00,
2013-10-10 20:07:00,69.1,64.9,29.96,ENE,67,0.0,0.0,87,0.00,,,0.00,WUHU21636XXSP,2013-10-11 00:07:00,
2013-10-10 20:12:00,68.9,64.8,29.97,ENE,67,0.0,0.0,88,0.00,,,0.00,WUHU21636XXSP,2013-10-11 00:12:00,
2013-10-10 20:17:00,68.7,64.9,29.97,ENE,67,0.0,0.0,89,0.00,,,0.00,WUHU21636XXSP,2013-10-11 00:17:00,
2013-10-10 20:22:00,68.5,65.1,29.97,ENE,67,0.0,0.0,89,0.00,,,0.00,WUHU21636XXSP,2013-10-11 00:22:00,
2013-10-10 20:27:00,68.5,65.1,29.97,ENE,67,0.0,0.0,90,0.00,,,0.00,WUHU21636XXSP,2013-10-11 00:27:00,
2013-10-10 20:32:00,68.4,65.3,29.97,ENE,67,0.0,0.0,90,0.00,,,0.00,WUHU21636XXSP,2013-10-11 00:32:00,
2013-10-10 20:37:00,68.2,65.1,29.97,ENE,67,0.0,0.0,90,0.00,,,0.00,WUHU21636XXSP,2013-10-11 00:37:00,
2013-10-10 20:42:00,68.0,64.9,29.97,ENE,67,0.0,0.0,90,0.00,,,0.00,WUHU21636XXSP,2013-10-11 00:42:00,
2013-10-10 20:47:00,67.8,64.9,29.97,ENE,67,0.0,0.0,91,0.00,,,0.00,WUHU21636XXSP,2013-10-11 00:47:00,
2013-10-10 20:52:00,67.6,64.8,29.97,ENE,67,0.0,0.0,91,0.00,,,0.00,WUHU21636XXSP,2013-10-11 00:52:00,
2013-10-10 20:57:00,67.6,64.8,29.97,ENE,67,0.0,0.0,91,0.00,,,0.00,WUHU21636XXSP,2013-10-11 00:57:00,
2013-10-10 21:02:00,67.5,64.6,29.97,ENE,67,0.0,0.0,91,0.00,,,0.00,WUHU21636XXSP,2013-10-11 01:02:00,
2013-10-10 21:07:00,67.3,64.4,29.97,ENE,67,0.0,0.0,91,0.00,,,0.00,WUHU21636XXSP,2013-10-11 01:07:00,
2013-10-10 21:12:00,67.3,64.4,29.97,ENE,67,0.0,0.0,92,0.00,,,0.00,WUHU21636XXSP,2013-10-11 01:12:00,
2013-10-10 21:17:00,67.1,64.6,29.98,ENE,67,0.0,0.0,92,0.00,,,0.00,WUHU21636XXSP,2013-10-11 01:17:00,
2013-10-10 21:22:00,66.9,64.4,29.98,ENE,67,0.0,0.0,92,0.00,,,0.00,WUHU21636XXSP,2013-10-11 01:22:00,
2013-10-10 21:27:00,66.9,64.4,29.98,ENE,67,0.0,0.0,92,0.00,,,0.00,WUHU21636XXSP,2013-10-11 01:27:00,
2013-10-10 21:32:00,66.9,64.4,29.98,ENE,67,0.0,0.0,93,0.00,,,0.00,WUHU21636XXSP,2013-10-11 01:32:00,
2013-10-10 21:37:00,66.7,64.6,29.98,ENE,67,0.0,0.0,93,0.00,,,0.00,WUHU21636XXSP,2013-10-11 01:37:00,
2013-10-10 21:42:00,66.7,64.6,29.99,ENE,67,0.0,0.0,93,0.00,,,0.00,WUHU21636XXSP,2013-10-11 01:42:00,
2013-10-10 21:47:00,66.6,64.4,29.99,ENE,67,0.0,0.0,93,0.00,,,0.00,WUHU21636XXSP,2013-10-11 01:47:00,
2013-10-10 21:52:00,66.4,64.2,30.00,ENE,67,0.0,0.0,93,0.00,,,0.00,WUHU21636XXSP,2013-10-11 01:52:00,
2013-10-10 21:57:00,66.4,64.2,29.99,ENE,67,0.0,0.0,93,0.00,,,0.00,WUHU21636XXSP,2013-10-11 01:57:00,
2013-10-10 22:02:00,66.4,64.2,29.99,ENE,67,0.0,0.0,93,0.00,,,0.00,WUHU21636XXSP,2013-10-11 02:02:00,
2013-10-10 22:07:00,66.4,64.4,29.99,ENE,67,0.0,0.0,94,0.00,,,0.00,WUHU21636XXSP,2013-10-11 02:07:00,
2013-10-10 22:12:00,66.2,64.2,29.99,ENE,67,0.0,0.0,94,0.00,,,0.00,WUHU21636XXSP,2013-10-11 02:12:00,
2013-10-10 22:17:00,66.0,64.0,29.99,ENE,67,0.0,0.0,94,0.00,,,0.00,WUHU21636XXSP,2013-10-11 02:17:00,
2013-10-10 22:22:00,66.0,64.0,29.99,ENE,67,0.0,0.0,94,0.00,,,0.00,WUHU21636XXSP,2013-10-11 02:22:00,
2013-10-10 22:27:00,66.0,64.0,29.99,ENE,67,0.0,0.0,94,0.00,,,0.00,WUHU21636XXSP,2013-10-11 02:27:00,
2013-10-10 22:32:00,65.8,63.9,29.99,ENE,67,0.0,0.0,94,0.00,,,0.00,WUHU21636XXSP,2013-10-11 02:32:00,
2013-10-10 22:37:00,65.8,63.9,29.99,ENE,67,0.0,0.0,94,0.00,,,0.00,WUHU21636XXSP,2013-10-11 02:37:00,
2013-10-10 22:42:00,65.8,63.9,29.99,ENE,67,0.0,0.0,94,0.00,,,0.00,WUHU21636XXSP,2013-10-11 02:42:00,
2013-10-10 22:47:00,65.5,63.7,29.99,ENE,67,0.0,0.0,94,0.00,,,0.00,WUHU21636XXSP,2013-10-11 02:47:00,
2013-10-10 22:52:00,65.3,63.5,29.99,ENE,67,0.0,0.0,94,0.00,,,0.00,WUHU21636XXSP,2013-10-11 02:52:00,
2013-10-10 22:57:00,65.3,63.5,29.99,ENE,67,0.0,0.0,94,0.00,,,0.00,WUHU21636XXSP,2013-10-11 02:57:00,
2013-10-10 23:02:00,65.3,63.5,29.99,ENE,67,0.0,0.0,94,0.00,,,0.00,WUHU21636XXSP,2013-10-11 03:02:00,
2013-10-10 23:07:00,65.1,63.5,29.99,ENE,67,0.0,0.0,95,0.00,,,0.00,WUHU21636XXSP,2013-10-11 03:07:00,
2013-10-10 23:12:00,65.1,63.5,29.99,ENE,67,0.0,0.0,95,0.00,,,0.00,WUHU21636XXSP,2013-10-11 03:12:00,
2013-10-10 23:17:00,65.3,63.7,29.98,ENE,67,0.0,0.0,95,0.00,,,0.00,WUHU21636XXSP,2013-10-11 03:17:00,
2013-10-10 23:22:00,65.1,63.5,29.98,ENE,67,0.0,0.0,95,0.00,,,0.00,WUHU21636XXSP,2013-10-11 03:22:00,
2013-10-10 23:27:00,65.1,63.5,29.98,ENE,67,0.0,0.0,95,0.00,,,0.00,WUHU21636XXSP,2013-10-11 03:27:00,
2013-10-10 23:32:00,65.1,63.5,29.98,ENE,67,0.0,0.0,95,0.00,,,0.00,WUHU21636XXSP,2013-10-11 03:32:00,
2013-10-10 23:37:00,64.9,63.3,29.98,ENE,67,0.0,0.0,95,0.00,,,0.00,WUHU21636XXSP,2013-10-11 03:37:00,
2013-10-10 23:42:00,64.8,63.1,29.98,ENE,67,0.0,0.0,95,0.00,,,0.00,WUHU21636XXSP,2013-10-11 03:42:00,
2013-10-10 23:47:00,64.9,63.3,29.98,ENE,67,0.0,0.0,95,0.00,,,0.00,WUHU21636XXSP,2013-10-11 03:47:00,
2013-10-10 23:52:00,64.9,63.3,29.98,ENE,67,0.0,0.0,95,0.00,,,0.00,WUHU21636XXSP,2013-10-11 03:52:00,
2013-10-10 23:57:00,64.9,63.3,29.98,ENE,67,0.0,0.0,95,0.00,,,0.00,WUHU21636XXSP,2013-10-11 03:57:00,